Collinsville, Oklahoma
Current Conditions -  °F | °C
As of 5:53 PM on Wednesday 26 Nov 2014 (Local Time) from KTUL Reporting Station
Scattered Clouds Scattered Clouds  
Wind Chill: 39°   Ceiling: Unl
Heat Index: 45°   Visibility: 10mi
Dew Point: 24°   Wind: 13mph
Humidity: 44%   Direction: 330°NNW
Pressure: 30.26"   Gusts: NA
Location:  36.36°N, 95.84°W
Report Text: KTUL 262353Z 33011KT 10SM FEW130 SCT250 07/M04 A3026 RMK AO2 SLP250 T00721044 10139 20072 53034
Loading
Personal Weather Stations






























Interactive Weather Map New forecast layout! Learn more

10-Day Weather Forecast

Advertisements
Track Severe Weather on mobile